Northsea Beta — 9HA2594 — position and weather

sailwx.info

Track history (hours):
 
Tides and Currents Weather Stations Pressure Air Temp Water Temp Dewpoint Dewpoint Depression Visibility Wind Speed Wind Dir Waves Ship Positions

Northsea Beta

Last reported at 2016-Jul-25 17:33 UTC. Time now 2016-Jul-25 17:55 UTC.
Position N 54°07' E 007°50'.

Length 110 m; draft 6.3 m.

Type: Tanker. MMSI: 248970000.

Date/timePositionNaut miles runAvg speedWind from/ knotsBaromVisibWave heightAir tempDewpointWater temp
2016-Jul-25 17:33N 54°07' E 007°50'1211.6
2016-Jul-25 16:33N 54°01' E 008°06'24 9.9
2016-Jul-25 14:08N 53°52' E 008°44'5 8.4
2016-Jul-25 13:33N 53°50' E 008°52'9 9.4
2016-Jul-25 12:33N 53°53' E 009°07'1110.6
2016-Jul-25 11:33N 53°48' E 009°23'1312.7
2016-Jul-25 10:33N 53°37' E 009°34'1312.5
2016-Jul-25 09:33N 53°33' E 009°54'2 2.1
2016-Jul-25 08:32N 53°31' E 009°56'0 0.0
2016-Jul-25 07:32N 53°31' E 009°56'0 0.0
2016-Jul-25 06:32N 53°31' E 009°56'0 0.0
2016-Jul-25 05:26N 53°31' E 009°56'0 0.0
2016-Jul-25 04:32N 53°31' E 009°56'0 0.0
2016-Jul-25 03:32N 53°31' E 009°56'0 0.0
2016-Jul-25 02:32N 53°31' E 009°56'0 0.0
2016-Jul-25 01:32N 53°31' E 009°56'0 0.0
2016-Jul-25 00:29N 53°31' E 009°56'0 0.0
2016-Jul-24 23:32N 53°31' E 009°56'0 0.0
2016-Jul-24 22:32N 53°31' E 009°56'0 0.0
2016-Jul-24 21:32N 53°31' E 009°56'0 0.0
2016-Jul-24 20:32N 53°31' E 009°56'0 0.0
2016-Jul-24 19:32N 53°31' E 009°56'0 0.0
2016-Jul-24 18:29N 53°31' E 009°56'0 0.0
2016-Jul-24 17:29N 53°31' E 009°56'0 0.0
2016-Jul-24 16:23N 53°31' E 009°56'0 0.0
2016-Jul-24 15:32N 53°31' E 009°56'0 0.0
2016-Jul-24 14:32N 53°31' E 009°56'0 0.0
2016-Jul-24 13:32N 53°31' E 009°56'0 0.0
2016-Jul-24 12:29N 53°31' E 009°56'0 0.0
2016-Jul-24 11:29N 53°31' E 009°56'0 0.0
2016-Jul-24 10:32N 53°31' E 009°56'0 0.0
2016-Jul-24 09:32N 53°31' E 009°56'0 0.0
2016-Jul-24 08:32N 53°31' E 009°56'0 0.0
2016-Jul-24 07:32N 53°31' E 009°56'0 0.0
2016-Jul-24 06:32N 53°31' E 009°56'0 0.0
2016-Jul-24 05:32N 53°31' E 009°56'0 0.0
2016-Jul-24 04:26N 53°31' E 009°56'0 0.0
2016-Jul-24 03:33N 53°31' E 009°56'5 5.0
2016-Jul-24 02:33N 53°33' E 009°49'10 9.9
2016-Jul-24 01:33N 53°37' E 009°33'1010.5
2016-Jul-24 00:33N 53°46' E 009°24'9 9.4
2016-Jul-23 23:33N 53°53' E 009°13'9 8.9
2016-Jul-23 22:33N 53°51' E 008°58'9 8.7
2016-Jul-23 21:33N 53°52' E 008°44'9 8.7
2016-Jul-23 20:33N 53°58' E 008°33'9 9.0
2016-Jul-23 19:33N 53°60' E 008°18'8 7.7
2016-Jul-23 18:34N 54°01' E 008°05'3 2.7
2016-Jul-23 17:32N 54°03' E 008°08'0 0.0
2016-Jul-23 16:32N 54°03' E 008°08'0 0.0
2016-Jul-23 15:32N 54°03' E 008°08'0 0.1
2016-Jul-23 14:32N 54°03' E 008°08'0 0.1
2016-Jul-23 13:29N 54°03' E 008°08'0 0.0
2016-Jul-23 12:32N 54°03' E 008°08'0 0.0
2016-Jul-23 08:32N 54°03' E 008°08'0 0.0
2016-Jul-23 07:32N 54°03' E 008°08'0 0.0
2016-Jul-23 06:32N 54°03' E 008°08'0 0.0
2016-Jul-23 03:31N 54°03' E 008°08'0 0.1
2016-Jul-23 02:32N 54°03' E 008°08'0 0.1
2016-Jul-23 01:29N 54°03' E 008°08'0 0.0
2016-Jul-22 22:31N 54°03' E 008°08'0 0.0
2016-Jul-22 21:26N 54°03' E 008°08'0 0.1
2016-Jul-22 20:26N 54°03' E 008°08'0 0.1
2016-Jul-22 19:32N 54°03' E 008°08'0 0.0
2016-Jul-22 18:26N 54°03' E 008°08'0 0.0
2016-Jul-22 17:32N 54°03' E 008°08'0 0.0
2016-Jul-22 16:13N 54°03' E 008°08'0 0.0
2016-Jul-22 15:16N 54°03' E 008°08'0 0.1
2016-Jul-22 14:26N 54°03' E 008°08'0 0.0
2016-Jul-22 11:29N 54°03' E 008°08'5 5.5
2016-Jul-22 10:33N 54°04' E 007°59'1111.0
2016-Jul-22 09:33N 54°07' E 007°42'1212.0
2016-Jul-22 08:33N 54°09' E 007°21'5611.2
2016-Jul-22 03:31N 54°05' E 005°45'1010.8
2016-Jul-22 02:33N 54°04' E 005°28'164 9.5
2016-Jul-21 09:17N 51°45' E 003°03'810.5
2016-Jul-21 08:32N 51°43' E 003°15'1110.8
2016-Jul-21 07:33N 51°34' E 003°24'1110.6
2016-Jul-21 06:33N 51°26' E 003°34'1212.1
2016-Jul-21 05:33N 51°21' E 003°52'9 8.5
2016-Jul-21 04:33N 51°22' E 004°06'8 8.5
2016-Jul-21 03:33N 51°18' E 004°17'2 2.1
2016-Jul-21 02:34N 51°16' E 004°17'1 1.3
2016-Jul-21 01:33N 51°16' E 004°15'1 0.8
2016-Jul-21 00:15N 51°17' E 004°14'0 0.0
2016-Jul-20 21:33N 51°17' E 004°14'0 0.0
2016-Jul-20 20:15N 51°17' E 004°14'0 0.0
2016-Jul-20 17:33N 51°17' E 004°14'0 0.0
2016-Jul-20 16:15N 51°17' E 004°14'0 0.0
2016-Jul-20 14:27N 51°17' E 004°14'0 0.0
2016-Jul-20 11:30N 51°17' E 004°14'0 0.0
2016-Jul-20 09:24N 51°17' E 004°14'0 0.0
2016-Jul-20 01:09N 51°17' E 004°14'1 0.0
2016-Jul-18 19:34N 51°17' E 004°14'2 2.2
2016-Jul-18 18:33N 51°16' E 004°17'6 5.8
2016-Jul-18 17:31N 51°21' E 004°14'6 5.8
2016-Jul-18 16:33N 51°22' E 004°05'5 5.1
2016-Jul-18 15:33N 51°25' E 003°58'8 7.5
2016-Jul-18 14:33N 51°21' E 003°47'8 8.4
2016-Jul-18 13:33N 51°26' E 003°36'1110.6
2016-Jul-18 12:31N 51°24' E 003°18'1111.7
2016-Jul-18 11:32N 51°23' E 002°60'1211.6
2016-Jul-18 10:32N 51°21' E 002°41'1211.7
2016-Jul-18 09:32N 51°20' E 002°23'1311.3
2016-Jul-18 08:24N 51°13' E 002°06'910.2
2016-Jul-18 07:33N 51°09' E 001°54'9 9.4
2016-Jul-18 06:33N 51°03' E 001°42'29111.0
2016-Jul-17 04:08N 48°57' W 005°06'811.9
2016-Jul-17 03:30N 48°53' W 005°17'1212.2
2016-Jul-17 02:30N 48°47' W 005°33'  
Track history (hours):
 
Tides and Currents Weather Stations Pressure Air Temp Water Temp Dewpoint Dewpoint Depression Visibility Wind Speed Wind Dir Waves Ship Positions

Northsea Beta

Last reported at 2016-Jul-25 17:33 UTC. Time now 2016-Jul-25 17:55 UTC.
Position N 54°07' E 007°50'.

Length 110 m; draft 6.3 m.

Type: Tanker. MMSI: 248970000.

Date/timePositionNaut miles runAvg speedWind from/ knotsBaromVisibWave heightAir tempDewpointWater temp
2016-Jul-25 17:33N 54°07' E 007°50'1211.6
2016-Jul-25 16:33N 54°01' E 008°06'24 9.9
2016-Jul-25 14:08N 53°52' E 008°44'5 8.4
2016-Jul-25 13:33N 53°50' E 008°52'9 9.4
2016-Jul-25 12:33N 53°53' E 009°07'1110.6
2016-Jul-25 11:33N 53°48' E 009°23'1312.7
2016-Jul-25 10:33N 53°37' E 009°34'1312.5
2016-Jul-25 09:33N 53°33' E 009°54'2 2.1
2016-Jul-25 08:32N 53°31' E 009°56'0 0.0
2016-Jul-25 07:32N 53°31' E 009°56'0 0.0
2016-Jul-25 06:32N 53°31' E 009°56'0 0.0
2016-Jul-25 05:26N 53°31' E 009°56'0 0.0
2016-Jul-25 04:32N 53°31' E 009°56'0 0.0
2016-Jul-25 03:32N 53°31' E 009°56'0 0.0
2016-Jul-25 02:32N 53°31' E 009°56'0 0.0
2016-Jul-25 01:32N 53°31' E 009°56'0 0.0
2016-Jul-25 00:29N 53°31' E 009°56'0 0.0
2016-Jul-24 23:32N 53°31' E 009°56'0 0.0
2016-Jul-24 22:32N 53°31' E 009°56'0 0.0
2016-Jul-24 21:32N 53°31' E 009°56'0 0.0
2016-Jul-24 20:32N 53°31' E 009°56'0 0.0
2016-Jul-24 19:32N 53°31' E 009°56'0 0.0
2016-Jul-24 18:29N 53°31' E 009°56'0 0.0
2016-Jul-24 17:29N 53°31' E 009°56'0 0.0
2016-Jul-24 16:23N 53°31' E 009°56'0 0.0
2016-Jul-24 15:32N 53°31' E 009°56'0 0.0
2016-Jul-24 14:32N 53°31' E 009°56'0 0.0
2016-Jul-24 13:32N 53°31' E 009°56'0 0.0
2016-Jul-24 12:29N 53°31' E 009°56'0 0.0
2016-Jul-24 11:29N 53°31' E 009°56'0 0.0
2016-Jul-24 10:32N 53°31' E 009°56'0 0.0
2016-Jul-24 09:32N 53°31' E 009°56'0 0.0
2016-Jul-24 08:32N 53°31' E 009°56'0 0.0
2016-Jul-24 07:32N 53°31' E 009°56'0 0.0
2016-Jul-24 06:32N 53°31' E 009°56'0 0.0
2016-Jul-24 05:32N 53°31' E 009°56'0 0.0
2016-Jul-24 04:26N 53°31' E 009°56'0 0.0
2016-Jul-24 03:33N 53°31' E 009°56'5 5.0
2016-Jul-24 02:33N 53°33' E 009°49'10 9.9
2016-Jul-24 01:33N 53°37' E 009°33'1010.5
2016-Jul-24 00:33N 53°46' E 009°24'9 9.4
2016-Jul-23 23:33N 53°53' E 009°13'9 8.9
2016-Jul-23 22:33N 53°51' E 008°58'9 8.7
2016-Jul-23 21:33N 53°52' E 008°44'9 8.7
2016-Jul-23 20:33N 53°58' E 008°33'9 9.0
2016-Jul-23 19:33N 53°60' E 008°18'8 7.7
2016-Jul-23 18:34N 54°01' E 008°05'3 2.7
2016-Jul-23 17:32N 54°03' E 008°08'0 0.0
2016-Jul-23 16:32N 54°03' E 008°08'0 0.0
2016-Jul-23 15:32N 54°03' E 008°08'0 0.1
2016-Jul-23 14:32N 54°03' E 008°08'0 0.1
2016-Jul-23 13:29N 54°03' E 008°08'0 0.0
2016-Jul-23 12:32N 54°03' E 008°08'0 0.0
2016-Jul-23 08:32N 54°03' E 008°08'0 0.0
2016-Jul-23 07:32N 54°03' E 008°08'0 0.0
2016-Jul-23 06:32N 54°03' E 008°08'0 0.0
2016-Jul-23 03:31N 54°03' E 008°08'0 0.1
2016-Jul-23 02:32N 54°03' E 008°08'0 0.1
2016-Jul-23 01:29N 54°03' E 008°08'0 0.0
2016-Jul-22 22:31N 54°03' E 008°08'0 0.0
2016-Jul-22 21:26N 54°03' E 008°08'0 0.1
2016-Jul-22 20:26N 54°03' E 008°08'0 0.1
2016-Jul-22 19:32N 54°03' E 008°08'0 0.0
2016-Jul-22 18:26N 54°03' E 008°08'0 0.0
2016-Jul-22 17:32N 54°03' E 008°08'0 0.0
2016-Jul-22 16:13N 54°03' E 008°08'0 0.0
2016-Jul-22 15:16N 54°03' E 008°08'0 0.1
2016-Jul-22 14:26N 54°03' E 008°08'0 0.0
2016-Jul-22 11:29N 54°03' E 008°08'5 5.5
2016-Jul-22 10:33N 54°04' E 007°59'1111.0
2016-Jul-22 09:33N 54°07' E 007°42'1212.0
2016-Jul-22 08:33N 54°09' E 007°21'5611.2
2016-Jul-22 03:31N 54°05' E 005°45'1010.8
2016-Jul-22 02:33N 54°04' E 005°28'164 9.5
2016-Jul-21 09:17N 51°45' E 003°03'810.5
2016-Jul-21 08:32N 51°43' E 003°15'1110.8
2016-Jul-21 07:33N 51°34' E 003°24'1110.6
2016-Jul-21 06:33N 51°26' E 003°34'1212.1
2016-Jul-21 05:33N 51°21' E 003°52'9 8.5
2016-Jul-21 04:33N 51°22' E 004°06'8 8.5
2016-Jul-21 03:33N 51°18' E 004°17'2 2.1
2016-Jul-21 02:34N 51°16' E 004°17'1 1.3
2016-Jul-21 01:33N 51°16' E 004°15'1 0.8
2016-Jul-21 00:15N 51°17' E 004°14'0 0.0
2016-Jul-20 21:33N 51°17' E 004°14'0 0.0
2016-Jul-20 20:15N 51°17' E 004°14'0 0.0
2016-Jul-20 17:33N 51°17' E 004°14'0 0.0
2016-Jul-20 16:15N 51°17' E 004°14'0 0.0
2016-Jul-20 14:27N 51°17' E 004°14'0 0.0
2016-Jul-20 11:30N 51°17' E 004°14'0 0.0
2016-Jul-20 09:24N 51°17' E 004°14'0 0.0
2016-Jul-20 01:09N 51°17' E 004°14'1 0.0
2016-Jul-18 19:34N 51°17' E 004°14'2 2.2
2016-Jul-18 18:33N 51°16' E 004°17'6 5.8
2016-Jul-18 17:31N 51°21' E 004°14'6 5.8
2016-Jul-18 16:33N 51°22' E 004°05'5 5.1
2016-Jul-18 15:33N 51°25' E 003°58'8 7.5
2016-Jul-18 14:33N 51°21' E 003°47'8 8.4
2016-Jul-18 13:33N 51°26' E 003°36'1110.6
2016-Jul-18 12:31N 51°24' E 003°18'1111.7
2016-Jul-18 11:32N 51°23' E 002°60'1211.6
2016-Jul-18 10:32N 51°21' E 002°41'1211.7
2016-Jul-18 09:32N 51°20' E 002°23'1311.3
2016-Jul-18 08:24N 51°13' E 002°06'910.2
2016-Jul-18 07:33N 51°09' E 001°54'9 9.4
2016-Jul-18 06:33N 51°03' E 001°42'29111.0
2016-Jul-17 04:08N 48°57' W 005°06'811.9
2016-Jul-17 03:30N 48°53' W 005°17'1212.2
2016-Jul-17 02:30N 48°47' W 005°33'  

Dump ship's entire track history